sensor_id;sensor_type;location;lat;lon;timestamp;pressure;altitude;pressure_sealevel;temperature;humidity
74329;BME280;62749;51.982;5.916;2023-02-02T00:02:21;101862.28;;;7.18;90.56
74329;BME280;62749;51.982;5.916;2023-02-02T00:04:50;101858.75;;;7.21;90.71
74329;BME280;62749;51.982;5.916;2023-02-02T00:07:20;101864.91;;;7.17;91.09
74329;BME280;62749;51.982;5.916;2023-02-02T00:09:49;101860.44;;;7.27;91.02
74329;BME280;62749;51.982;5.916;2023-02-02T00:12:18;101871.84;;;7.26;90.97
74329;BME280;62749;51.982;5.916;2023-02-02T00:14:48;101863.06;;;7.28;90.93
74329;BME280;62749;51.982;5.916;2023-02-02T00:17:20;101843.88;;;7.17;91.01
74329;BME280;62749;51.982;5.916;2023-02-02T00:19:50;101863.91;;;7.32;90.95
74329;BME280;62749;51.982;5.916;2023-02-02T00:22:19;101865.63;;;7.31;90.65
74329;BME280;62749;51.982;5.916;2023-02-02T00:24:48;101867.41;;;7.31;90.82
74329;BME280;62749;51.982;5.916;2023-02-02T00:27:18;101869.16;;;7.32;90.92
74329;BME280;62749;51.982;5.916;2023-02-02T00:29:47;101860.38;;;7.33;90.74
74329;BME280;62749;51.982;5.916;2023-02-02T00:32:21;101861.25;;;7.33;91.09
74329;BME280;62749;51.982;5.916;2023-02-02T00:34:51;101866.56;;;7.26;91.07
74329;BME280;62749;51.982;5.916;2023-02-02T00:37:20;101872.69;;;7.29;90.87
74329;BME280;62749;51.982;5.916;2023-02-02T00:39:49;101870.91;;;7.31;90.78
74329;BME280;62749;51.982;5.916;2023-02-02T00:42:19;101866.44;;;7.40;90.32
74329;BME280;62749;51.982;5.916;2023-02-02T00:44:48;101877.81;;;7.40;90.39
74329;BME280;62749;51.982;5.916;2023-02-02T00:47:51;101876.91;;;7.43;90.09
74329;BME280;62749;51.982;5.916;2023-02-02T00:50:20;101876.06;;;7.41;90.04
74329;BME280;62749;51.982;5.916;2023-02-02T00:52:49;101875.13;;;7.45;89.83
74329;BME280;62749;51.982;5.916;2023-02-02T00:55:19;101876.13;;;7.34;90.27
74329;BME280;62749;51.982;5.916;2023-02-02T00:57:49;101876.88;;;7.46;90.14
74329;BME280;62749;51.982;5.916;2023-02-02T01:00:22;101871.72;;;7.36;90.15
74329;BME280;62749;51.982;5.916;2023-02-02T01:02:55;101873.44;;;7.41;90.22
74329;BME280;62749;51.982;5.916;2023-02-02T01:05:29;101868.19;;;7.41;89.90
74329;BME280;62749;51.982;5.916;2023-02-02T01:07:59;101875.22;;;7.39;90.16
74329;BME280;62749;51.982;5.916;2023-02-02T01:10:28;101875.22;;;7.39;90.38
74329;BME280;62749;51.982;5.916;2023-02-02T01:12:59;101876.06;;;7.39;90.33
74329;BME280;62749;51.982;5.916;2023-02-02T01:15:28;101885.72;;;7.39;90.05
74329;BME280;62749;51.982;5.916;2023-02-02T01:18:00;101875.22;;;7.39;90.26
74329;BME280;62749;51.982;5.916;2023-02-02T01:20:30;101882.22;;;7.40;90.31
74329;BME280;62749;51.982;5.916;2023-02-02T01:23:00;101881.31;;;7.41;90.12
74329;BME280;62749;51.982;5.916;2023-02-02T01:25:29;101882.22;;;7.38;90.04
74329;BME280;62749;51.982;5.916;2023-02-02T01:28:00;101887.56;;;7.30;90.55
74329;BME280;62749;51.982;5.916;2023-02-02T01:30:29;101889.38;;;7.25;90.81
74329;BME280;62749;51.982;5.916;2023-02-02T01:33:01;101855.41;;;7.08;90.63
74329;BME280;62749;51.982;5.916;2023-02-02T01:35:31;101879.69;;;7.29;90.68
74329;BME280;62749;51.982;5.916;2023-02-02T01:38:00;101891.97;;;7.28;90.67
74329;BME280;62749;51.982;5.916;2023-02-02T01:40:29;101884.91;;;7.30;90.63
74329;BME280;62749;51.982;5.916;2023-02-02T01:42:59;101890.22;;;7.26;90.83
74329;BME280;62749;51.982;5.916;2023-02-02T01:45:29;101893.78;;;7.23;90.94
74329;BME280;62749;51.982;5.916;2023-02-02T01:48:01;101892.91;;;7.21;91.14
74329;BME280;62749;51.982;5.916;2023-02-02T01:50:33;101897.28;;;7.22;90.92
74329;BME280;62749;51.982;5.916;2023-02-02T01:53:06;101905.19;;;7.20;90.95
74329;BME280;62749;51.982;5.916;2023-02-02T01:55:38;101906.06;;;7.22;90.90
74329;BME280;62749;51.982;5.916;2023-02-02T01:58:12;101900.88;;;7.15;90.87
74329;BME280;62749;51.982;5.916;2023-02-02T02:00:43;101906.09;;;7.19;90.83
74329;BME280;62749;51.982;5.916;2023-02-02T02:03:19;101908.78;;;7.12;90.67
74329;BME280;62749;51.982;5.916;2023-02-02T02:05:52;101904.34;;;7.18;90.45
74329;BME280;62749;51.982;5.916;2023-02-02T02:08:27;101912.19;;;7.20;90.64
74329;BME280;62749;51.982;5.916;2023-02-02T02:10:58;101901.72;;;7.18;90.20
74329;BME280;62749;51.982;5.916;2023-02-02T02:13:31;101904.34;;;7.17;90.37
74329;BME280;62749;51.982;5.916;2023-02-02T02:16:26;101893.81;;;7.17;90.64
74329;BME280;62749;51.982;5.916;2023-02-02T02:19:17;101912.31;;;7.07;90.56
74329;BME280;62749;51.982;5.916;2023-02-02T02:22:00;101907.16;;;6.98;91.00
74329;BME280;62749;51.982;5.916;2023-02-02T02:28:30;101904.47;;;7.03;90.75
74329;BME280;62749;51.982;5.916;2023-02-02T02:34:16;101889.59;;;7.03;90.89
74329;BME280;62749;51.982;5.916;2023-02-02T02:36:55;101901.94;;;6.97;91.04
74329;BME280;62749;51.982;5.916;2023-02-02T02:39:31;101902.81;;;6.94;91.35
74329;BME280;62749;51.982;5.916;2023-02-02T02:42:08;101894.94;;;6.91;91.77
74329;BME280;62749;51.982;5.916;2023-02-02T02:44:40;101895.13;;;6.72;92.06
74329;BME280;62749;51.982;5.916;2023-02-02T02:47:10;101896.78;;;6.80;92.13
74329;BME280;62749;51.982;5.916;2023-02-02T02:49:47;101895.00;;;6.88;92.19
74329;BME280;62749;51.982;5.916;2023-02-02T02:52:17;101885.47;;;6.78;92.45
74329;BME280;62749;51.982;5.916;2023-02-02T02:54:50;101882.88;;;6.71;92.63
74329;BME280;62749;51.982;5.916;2023-02-02T02:57:45;101887.22;;;6.74;93.11
74329;BME280;62749;51.982;5.916;2023-02-02T03:00:33;101886.34;;;6.77;93.00
74329;BME280;62749;51.982;5.916;2023-02-02T03:03:13;101871.41;;;6.82;93.25
74329;BME280;62749;51.982;5.916;2023-02-02T03:05:53;101872.38;;;6.68;93.45
74329;BME280;62749;51.982;5.916;2023-02-02T03:08:31;101874.94;;;6.79;93.39
74329;BME280;62749;51.982;5.916;2023-02-02T03:11:05;101872.25;;;6.84;93.39
74329;BME280;62749;51.982;5.916;2023-02-02T03:13:35;101866.97;;;6.87;93.00
74329;BME280;62749;51.982;5.916;2023-02-02T03:16:05;101863.50;;;6.82;93.22
74329;BME280;62749;51.982;5.916;2023-02-02T03:18:36;101859.22;;;6.73;93.06
74329;BME280;62749;51.982;5.916;2023-02-02T03:21:08;101874.03;;;6.82;93.29
74329;BME280;62749;51.982;5.916;2023-02-02T03:23:37;101874.88;;;6.87;93.28
74329;BME280;62749;51.982;5.916;2023-02-02T03:26:07;101879.25;;;6.85;93.16
74329;BME280;62749;51.982;5.916;2023-02-02T03:28:36;101886.25;;;6.86;93.14
74329;BME280;62749;51.982;5.916;2023-02-02T03:31:06;101893.28;;;6.82;92.94
74329;BME280;62749;51.982;5.916;2023-02-02T03:33:36;101882.75;;;6.85;93.02
74329;BME280;62749;51.982;5.916;2023-02-02T03:36:09;101894.13;;;6.89;92.82
74329;BME280;62749;51.982;5.916;2023-02-02T03:38:38;101905.50;;;6.86;92.42
74329;BME280;62749;51.982;5.916;2023-02-02T03:41:07;101903.75;;;6.90;92.62
74329;BME280;62749;51.982;5.916;2023-02-02T03:43:50;101893.19;;;6.93;92.54
74329;BME280;62749;51.982;5.916;2023-02-02T03:46:19;101901.09;;;6.88;92.56
74329;BME280;62749;51.982;5.916;2023-02-02T03:48:48;101890.56;;;6.95;92.27
74329;BME280;62749;51.982;5.916;2023-02-02T03:51:20;101901.88;;;7.01;91.95
74329;BME280;62749;51.982;5.916;2023-02-02T03:53:50;101891.38;;;7.01;92.01
74329;BME280;62749;51.982;5.916;2023-02-02T03:56:19;101899.22;;;7.03;91.78
74329;BME280;62749;51.982;5.916;2023-02-02T03:58:49;101898.34;;;7.04;91.79
74329;BME280;62749;51.982;5.916;2023-02-02T04:01:26;101890.44;;;7.07;91.48
74329;BME280;62749;51.982;5.916;2023-02-02T04:03:57;101899.22;;;7.03;91.52
74329;BME280;62749;51.982;5.916;2023-02-02T04:06:29;101901.78;;;7.11;91.47
74329;BME280;62749;51.982;5.916;2023-02-02T04:08:59;101889.50;;;7.13;91.42
74329;BME280;62749;51.982;5.916;2023-02-02T04:11:28;101885.91;;;7.20;91.12
74329;BME280;62749;51.982;5.916;2023-02-02T04:13:57;101884.16;;;7.19;90.76
74329;BME280;62749;51.982;5.916;2023-02-02T04:16:27;101874.50;;;7.24;90.26
74329;BME280;62749;51.982;5.916;2023-02-02T04:19:00;101878.84;;;7.28;90.11
74329;BME280;62749;51.982;5.916;2023-02-02T04:21:32;101869.25;;;7.22;90.42
74329;BME280;62749;51.982;5.916;2023-02-02T04:24:01;101870.16;;;7.20;90.58
74329;BME280;62749;51.982;5.916;2023-02-02T04:26:30;101873.53;;;7.33;90.17
74329;BME280;62749;51.982;5.916;2023-02-02T04:29:00;101869.97;;;7.35;89.99
74329;BME280;62749;51.982;5.916;2023-02-02T04:31:29;101876.13;;;7.34;89.57
74329;BME280;62749;51.982;5.916;2023-02-02T04:33:59;101869.13;;;7.35;89.70
74329;BME280;62749;51.982;5.916;2023-02-02T04:36:31;101867.31;;;7.37;89.77
74329;BME280;62749;51.982;5.916;2023-02-02T04:39:01;101874.38;;;7.35;89.42
74329;BME280;62749;51.982;5.916;2023-02-02T04:41:30;101883.06;;;7.40;89.33
74329;BME280;62749;51.982;5.916;2023-02-02T04:43:59;101879.50;;;7.46;89.15
74329;BME280;62749;51.982;5.916;2023-02-02T04:46:29;101883.06;;;7.42;88.96
74329;BME280;62749;51.982;5.916;2023-02-02T04:48:58;101883.91;;;7.44;89.07
74329;BME280;62749;51.982;5.916;2023-02-02T04:51:27;101881.28;;;7.45;88.75
74329;BME280;62749;51.982;5.916;2023-02-02T04:53:59;101892.59;;;7.52;88.28
74329;BME280;62749;51.982;5.916;2023-02-02T04:56:29;101896.06;;;7.56;88.42
74329;BME280;62749;51.982;5.916;2023-02-02T04:58:58;101889.09;;;7.50;88.77
74329;BME280;62749;51.982;5.916;2023-02-02T05:01:27;101886.47;;;7.50;88.46
74329;BME280;62749;51.982;5.916;2023-02-02T05:03:57;101893.53;;;7.45;88.99
74329;BME280;62749;51.982;5.916;2023-02-02T05:06:26;101893.47;;;7.51;88.87
74329;BME280;62749;51.982;5.916;2023-02-02T05:08:58;101897.84;;;7.50;88.53
74329;BME280;62749;51.982;5.916;2023-02-02T05:11:28;101900.44;;;7.55;88.71
74329;BME280;62749;51.982;5.916;2023-02-02T05:13:57;101897.84;;;7.52;88.62
74329;BME280;62749;51.982;5.916;2023-02-02T05:16:26;101897.88;;;7.49;89.09
74329;BME280;62749;51.982;5.916;2023-02-02T05:18:56;101902.16;;;7.56;88.71
74329;BME280;62749;51.982;5.916;2023-02-02T05:21:26;101890.75;;;7.59;88.50
74329;BME280;62749;51.982;5.916;2023-02-02T05:23:56;101891.59;;;7.62;88.29
74329;BME280;62749;51.982;5.916;2023-02-02T05:26:29;101893.31;;;7.62;88.43
74329;BME280;62749;51.982;5.916;2023-02-02T05:29:01;101892.44;;;7.63;88.34
74329;BME280;62749;51.982;5.916;2023-02-02T05:31:32;101894.19;;;7.64;88.47
74329;BME280;62749;51.982;5.916;2023-02-02T05:34:01;101903.06;;;7.53;88.34
74329;BME280;62749;51.982;5.916;2023-02-02T05:36:32;101900.47;;;7.50;88.16
74329;BME280;62749;51.982;5.916;2023-02-02T05:39:01;101907.41;;;7.59;87.96
74329;BME280;62749;51.982;5.916;2023-02-02T05:41:33;101908.22;;;7.63;87.98
74329;BME280;62749;51.982;5.916;2023-02-02T05:44:03;101899.38;;;7.68;87.91
74329;BME280;62749;51.982;5.916;2023-02-02T05:46:32;101894.19;;;7.65;87.88
74329;BME280;62749;51.982;5.916;2023-02-02T05:49:02;101902.88;;;7.71;87.86
74329;BME280;62749;51.982;5.916;2023-02-02T05:51:37;101900.16;;;7.80;87.35
74329;BME280;62749;51.982;5.916;2023-02-02T05:54:08;101906.31;;;7.76;87.31
74329;BME280;62749;51.982;5.916;2023-02-02T05:56:41;101902.84;;;7.74;87.50
74329;BME280;62749;51.982;5.916;2023-02-02T05:59:11;101904.56;;;7.76;87.34
74329;BME280;62749;51.982;5.916;2023-02-02T06:01:40;101893.19;;;7.76;87.57
74329;BME280;62749;51.982;5.916;2023-02-02T06:04:09;101910.66;;;7.78;87.87
74329;BME280;62749;51.982;5.916;2023-02-02T06:06:39;101896.81;;;7.64;87.53
74329;BME280;62749;51.982;5.916;2023-02-02T06:09:10;101909.03;;;7.70;87.78
74329;BME280;62749;51.982;5.916;2023-02-02T06:11:42;101906.38;;;7.73;87.96
74329;BME280;62749;51.982;5.916;2023-02-02T06:14:12;101908.94;;;7.77;87.89
74329;BME280;62749;51.982;5.916;2023-02-02T06:16:41;101905.50;;;7.71;88.11
74329;BME280;62749;51.982;5.916;2023-02-02T06:19:10;101911.69;;;7.68;88.24
74329;BME280;62749;51.982;5.916;2023-02-02T06:21:40;101918.72;;;7.67;88.41
74329;BME280;62749;51.982;5.916;2023-02-02T06:24:09;101914.25;;;7.73;88.44
74329;BME280;62749;51.982;5.916;2023-02-02T06:26:39;101924.00;;;7.64;88.87
74329;BME280;62749;51.982;5.916;2023-02-02T06:29:12;101911.66;;;7.70;89.00
74329;BME280;62749;51.982;5.916;2023-02-02T06:31:42;101926.56;;;7.69;89.02
74329;BME280;62749;51.982;5.916;2023-02-02T06:34:11;101924.81;;;7.71;89.14
74329;BME280;62749;51.982;5.916;2023-02-02T06:36:41;101933.53;;;7.75;89.06
74329;BME280;62749;51.982;5.916;2023-02-02T06:39:11;101934.50;;;7.67;89.40
74329;BME280;62749;51.982;5.916;2023-02-02T06:41:40;101937.19;;;7.61;89.77
74329;BME280;62749;51.982;5.916;2023-02-02T06:44:14;101935.38;;;7.65;90.04
74329;BME280;62749;51.982;5.916;2023-02-02T06:46:45;101940.78;;;7.54;90.39
74329;BME280;62749;51.982;5.916;2023-02-02T06:49:14;101945.94;;;7.63;90.46
74329;BME280;62749;51.982;5.916;2023-02-02T06:51:45;101955.56;;;7.63;90.69
74329;BME280;62749;51.982;5.916;2023-02-02T06:54:15;101953.81;;;7.63;90.53
74329;BME280;62749;51.982;5.916;2023-02-02T06:56:44;101961.75;;;7.57;90.78
74329;BME280;62749;51.982;5.916;2023-02-02T06:59:16;101952.09;;;7.61;91.05
74329;BME280;62749;51.982;5.916;2023-02-02T07:01:47;101960.03;;;7.55;91.29
74329;BME280;62749;51.982;5.916;2023-02-02T07:04:17;101962.72;;;7.53;91.54
74329;BME280;62749;51.982;5.916;2023-02-02T07:06:47;101960.06;;;7.51;91.84
74329;BME280;62749;51.982;5.916;2023-02-02T07:09:16;101963.63;;;7.46;91.90
74329;BME280;62749;51.982;5.916;2023-02-02T07:11:47;101959.25;;;7.48;91.93
74329;BME280;62749;51.982;5.916;2023-02-02T07:14:18;101960.97;;;7.50;91.83
74329;BME280;62749;51.982;5.916;2023-02-02T07:16:48;101968.84;;;7.52;91.83
74329;BME280;62749;51.982;5.916;2023-02-02T07:19:17;101966.22;;;7.50;91.87
74329;BME280;62749;51.982;5.916;2023-02-02T07:21:47;101961.88;;;7.48;91.99
74329;BME280;62749;51.982;5.916;2023-02-02T07:24:16;101970.63;;;7.50;92.09
74329;BME280;62749;51.982;5.916;2023-02-02T07:26:45;101968.00;;;7.50;92.31
74329;BME280;62749;51.982;5.916;2023-02-02T07:29:15;101961.00;;;7.46;92.51
74329;BME280;62749;51.982;5.916;2023-02-02T07:31:47;101962.75;;;7.47;92.56
74329;BME280;62749;51.982;5.916;2023-02-02T07:34:16;101967.16;;;7.45;92.85
74329;BME280;62749;51.982;5.916;2023-02-02T07:36:46;101975.03;;;7.45;92.86
74329;BME280;62749;51.982;5.916;2023-02-02T07:39:15;101979.41;;;7.47;93.03
74329;BME280;62749;51.982;5.916;2023-02-02T07:41:45;101983.75;;;7.50;92.80
74329;BME280;62749;51.982;5.916;2023-02-02T07:44:15;101987.31;;;7.43;93.10
74329;BME280;62749;51.982;5.916;2023-02-02T07:46:49;101991.69;;;7.45;93.05
74329;BME280;62749;51.982;5.916;2023-02-02T07:49:19;101983.88;;;7.39;93.08
74329;BME280;62749;51.982;5.916;2023-02-02T07:51:48;101997.84;;;7.43;93.25
74329;BME280;62749;51.982;5.916;2023-02-02T07:54:35;101995.19;;;7.47;93.10
74329;BME280;62749;51.982;5.916;2023-02-02T07:57:04;101997.84;;;7.44;93.05
74329;BME280;62749;51.982;5.916;2023-02-02T07:59:33;101999.59;;;7.44;93.19
74329;BME280;62749;51.982;5.916;2023-02-02T08:02:07;102008.28;;;7.50;93.35
74329;BME280;62749;51.982;5.916;2023-02-02T08:04:36;102008.34;;;7.47;93.44
74329;BME280;62749;51.982;5.916;2023-02-02T08:07:06;102012.75;;;7.45;93.29
74329;BME280;62749;51.982;5.916;2023-02-02T08:09:35;102017.16;;;7.42;93.67
74329;BME280;62749;51.982;5.916;2023-02-02T08:12:04;102013.56;;;7.49;93.57
74329;BME280;62749;51.982;5.916;2023-02-02T08:14:34;102013.63;;;7.43;93.79
74329;BME280;62749;51.982;5.916;2023-02-02T08:17:06;102015.38;;;7.44;93.69
74329;BME280;62749;51.982;5.916;2023-02-02T08:19:35;102006.59;;;7.46;93.78
74329;BME280;62749;51.982;5.916;2023-02-02T08:22:04;102008.34;;;7.47;93.65
74329;BME280;62749;51.982;5.916;2023-02-02T08:24:35;102012.75;;;7.42;93.51
74329;BME280;62749;51.982;5.916;2023-02-02T08:27:06;102020.66;;;7.42;93.72
74329;BME280;62749;51.982;5.916;2023-02-02T08:29:37;102017.97;;;7.48;93.72
74329;BME280;62749;51.982;5.916;2023-02-02T08:32:09;102027.59;;;7.51;93.34
74329;BME280;62749;51.982;5.916;2023-02-02T08:34:38;102011.03;;;7.40;92.94
74329;BME280;62749;51.982;5.916;2023-02-02T08:37:08;102027.59;;;7.48;92.92
74329;BME280;62749;51.982;5.916;2023-02-02T08:39:37;102045.16;;;7.46;92.86
74329;BME280;62749;51.982;5.916;2023-02-02T08:42:07;102038.09;;;7.54;93.14
74329;BME280;62749;51.982;5.916;2023-02-02T08:44:36;102041.56;;;7.58;92.56
74329;BME280;62749;51.982;5.916;2023-02-02T08:47:06;102038.03;;;7.59;92.63
74329;BME280;62749;51.982;5.916;2023-02-02T08:49:37;102045.09;;;7.52;92.41
74329;BME280;62749;51.982;5.916;2023-02-02T08:52:07;102055.50;;;7.64;92.17
74329;BME280;62749;51.982;5.916;2023-02-02T08:54:37;102058.16;;;7.64;91.93
74329;BME280;62749;51.982;5.916;2023-02-02T08:57:06;102058.97;;;7.68;91.39
74329;BME280;62749;51.982;5.916;2023-02-02T08:59:35;102054.63;;;7.65;91.11
74329;BME280;62749;51.982;5.916;2023-02-02T09:02:05;102063.34;;;7.72;91.27
74329;BME280;62749;51.982;5.916;2023-02-02T09:04:34;102065.88;;;7.78;91.50
74329;BME280;62749;51.982;5.916;2023-02-02T09:07:06;102064.94;;;7.84;90.78
74329;BME280;62749;51.982;5.916;2023-02-02T09:09:35;102076.34;;;7.86;90.52
74329;BME280;62749;51.982;5.916;2023-02-02T09:12:05;102066.75;;;7.80;89.80
74329;BME280;62749;51.982;5.916;2023-02-02T09:14:35;102076.34;;;7.83;89.17
74329;BME280;62749;51.982;5.916;2023-02-02T09:17:04;102078.09;;;7.84;89.07
74329;BME280;62749;51.982;5.916;2023-02-02T09:19:33;102085.00;;;7.96;89.21
74329;BME280;62749;51.982;5.916;2023-02-02T09:22:05;102090.22;;;8.01;88.28
74329;BME280;62749;51.982;5.916;2023-02-02T09:24:35;102099.00;;;7.99;88.52
74329;BME280;62749;51.982;5.916;2023-02-02T09:27:04;102101.56;;;8.07;88.13
74329;BME280;62749;51.982;5.916;2023-02-02T09:29:34;102113.78;;;8.13;88.50
74329;BME280;62749;51.982;5.916;2023-02-02T09:32:04;102103.28;;;8.10;87.96
74329;BME280;62749;51.982;5.916;2023-02-02T09:34:33;102113.84;;;8.07;88.02
74329;BME280;62749;51.982;5.916;2023-02-02T09:37:05;102112.00;;;8.15;88.15
74329;BME280;62749;51.982;5.916;2023-02-02T09:39:35;102116.47;;;8.08;88.12
74329;BME280;62749;51.982;5.916;2023-02-02T09:42:24;102121.63;;;8.18;88.04
74329;BME280;62749;51.982;5.916;2023-02-02T09:45:05;102126.00;;;8.19;88.27
74329;BME280;62749;51.982;5.916;2023-02-02T09:47:51;102134.75;;;8.22;87.66
74329;BME280;62749;51.982;5.916;2023-02-02T09:53:36;102131.25;;;8.20;87.77
74329;BME280;62749;51.982;5.916;2023-02-02T09:56:17;102135.63;;;8.23;87.66
74329;BME280;62749;51.982;5.916;2023-02-02T09:58:51;102140.00;;;8.22;87.52
74329;BME280;62749;51.982;5.916;2023-02-02T10:01:25;102142.72;;;8.14;86.91
74329;BME280;62749;51.982;5.916;2023-02-02T10:04:00;102147.25;;;8.02;86.52
74329;BME280;62749;51.982;5.916;2023-02-02T10:06:37;102152.38;;;8.17;86.78
74329;BME280;62749;51.982;5.916;2023-02-02T10:09:22;102141.75;;;8.25;86.46
74329;BME280;62749;51.982;5.916;2023-02-02T10:11:59;102146.06;;;8.31;86.92
74329;BME280;62749;51.982;5.916;2023-02-02T10:14:36;102146.03;;;8.34;86.13
74329;BME280;62749;51.982;5.916;2023-02-02T10:17:35;102153.00;;;8.38;85.89
74329;BME280;62749;51.982;5.916;2023-02-02T10:20:21;102160.84;;;8.42;85.94
74329;BME280;62749;51.982;5.916;2023-02-02T10:22:58;102167.91;;;8.39;85.67
74329;BME280;62749;51.982;5.916;2023-02-02T10:25:39;102171.38;;;8.42;85.58
74329;BME280;62749;51.982;5.916;2023-02-02T10:28:17;102172.25;;;8.44;86.48
74329;BME280;62749;51.982;5.916;2023-02-02T10:30:57;102172.31;;;8.37;86.38
74329;BME280;62749;51.982;5.916;2023-02-02T10:33:37;102177.56;;;8.40;86.39
74329;BME280;62749;51.982;5.916;2023-02-02T10:36:15;102176.72;;;8.38;85.71
74329;BME280;62749;51.982;5.916;2023-02-02T10:38:56;102167.06;;;8.37;86.13
74329;BME280;62749;51.982;5.916;2023-02-02T10:41:39;102182.75;;;8.46;86.41
74329;BME280;62749;51.982;5.916;2023-02-02T10:44:22;102185.44;;;8.41;86.04
74329;BME280;62749;51.982;5.916;2023-02-02T10:46:56;102196.88;;;8.42;86.65
74329;BME280;62749;51.982;5.916;2023-02-02T10:49:30;102186.34;;;8.42;86.20
74329;BME280;62749;51.982;5.916;2023-02-02T10:52:14;102188.09;;;8.40;86.29
74329;BME280;62749;51.982;5.916;2023-02-02T10:54:57;102188.06;;;8.44;86.48
74329;BME280;62749;51.982;5.916;2023-02-02T10:57:45;102189.78;;;8.50;86.39
74329;BME280;62749;51.982;5.916;2023-02-02T11:00:22;102186.22;;;8.53;86.97
74329;BME280;62749;51.982;5.916;2023-02-02T11:02:53;102186.25;;;8.51;86.36
74329;BME280;62749;51.982;5.916;2023-02-02T11:05:27;102186.28;;;8.47;86.44
74329;BME280;62749;51.982;5.916;2023-02-02T11:08:12;102195.97;;;8.48;86.82
74329;BME280;62749;51.982;5.916;2023-02-02T11:10:44;102177.53;;;8.48;86.36
74329;BME280;62749;51.982;5.916;2023-02-02T11:13:26;102180.16;;;8.44;86.47
74329;BME280;62749;51.982;5.916;2023-02-02T11:16:18;102188.88;;;8.51;86.63
74329;BME280;62749;51.982;5.916;2023-02-02T11:18:48;102182.78;;;8.48;86.81
74329;BME280;62749;51.982;5.916;2023-02-02T11:21:21;102182.75;;;8.51;86.58
74329;BME280;62749;51.982;5.916;2023-02-02T11:23:58;102193.28;;;8.52;86.56
74329;BME280;62749;51.982;5.916;2023-02-02T11:26:41;102178.31;;;8.53;86.73
74329;BME280;62749;51.982;5.916;2023-02-02T11:29:22;102187.91;;;8.58;86.43
74329;BME280;62749;51.982;5.916;2023-02-02T11:31:52;102187.97;;;8.55;86.73
74329;BME280;62749;51.982;5.916;2023-02-02T11:34:24;102181.00;;;8.48;86.16
74329;BME280;62749;51.982;5.916;2023-02-02T11:37:02;102165.22;;;8.48;86.29
74329;BME280;62749;51.982;5.916;2023-02-02T11:39:32;102170.50;;;8.45;86.78
74329;BME280;62749;51.982;5.916;2023-02-02T11:42:05;102172.25;;;8.44;86.47
74329;BME280;62749;51.982;5.916;2023-02-02T11:44:38;102170.47;;;8.48;86.90
74329;BME280;62749;51.982;5.916;2023-02-02T11:47:19;102169.59;;;8.46;86.94
74329;BME280;62749;51.982;5.916;2023-02-02T11:49:50;102172.28;;;8.43;86.97
74329;BME280;62749;51.982;5.916;2023-02-02T11:52:23;102180.22;;;8.38;86.90
74329;BME280;62749;51.982;5.916;2023-02-02T11:54:57;102177.53;;;8.43;86.44
74329;BME280;62749;51.982;5.916;2023-02-02T11:57:28;102181.88;;;8.47;86.07
74329;BME280;62749;51.982;5.916;2023-02-02T12:00:16;102183.66;;;8.48;86.24
74329;BME280;62749;51.982;5.916;2023-02-02T12:02:46;102181.00;;;8.51;86.17
74329;BME280;62749;51.982;5.916;2023-02-02T12:05:35;102173.03;;;8.57;85.95
74329;BME280;62749;51.982;5.916;2023-02-02T12:08:09;102175.69;;;8.54;85.63
74329;BME280;62749;51.982;5.916;2023-02-02T12:10:45;102170.44;;;8.51;85.47
74329;BME280;62749;51.982;5.916;2023-02-02T12:13:24;102173.97;;;8.52;85.86
74329;BME280;62749;51.982;5.916;2023-02-02T12:16:10;102173.03;;;8.56;85.05
74329;BME280;62749;51.982;5.916;2023-02-02T12:18:59;102176.53;;;8.55;84.98
74329;BME280;62749;51.982;5.916;2023-02-02T12:21:40;102178.28;;;8.59;85.12
74329;BME280;62749;51.982;5.916;2023-02-02T12:24:25;102179.16;;;8.58;84.99
74329;BME280;62749;51.982;5.916;2023-02-02T12:27:19;102176.59;;;8.50;85.26
74329;BME280;62749;51.982;5.916;2023-02-02T12:30:08;102180.91;;;8.59;84.82
74329;BME280;62749;51.982;5.916;2023-02-02T12:36:10;102174.88;;;8.51;85.22
74329;BME280;62749;51.982;5.916;2023-02-02T12:39:07;102176.56;;;8.53;84.68
74329;BME280;62749;51.982;5.916;2023-02-02T12:44:42;102170.44;;;8.51;85.60
74329;BME280;62749;51.982;5.916;2023-02-02T12:47:22;102172.19;;;8.52;85.65
74329;BME280;62749;51.982;5.916;2023-02-02T12:50:23;102163.47;;;8.42;85.66
74329;BME280;62749;51.982;5.916;2023-02-02T12:53:15;102161.81;;;8.35;85.95
74329;BME280;62749;51.982;5.916;2023-02-02T12:55:58;102162.72;;;8.34;86.30
74329;BME280;62749;51.982;5.916;2023-02-02T12:58:37;102165.34;;;8.33;86.60
74329;BME280;62749;51.982;5.916;2023-02-02T13:01:21;102168.84;;;8.35;86.54
74329;BME280;62749;51.982;5.916;2023-02-02T13:04:15;102166.22;;;8.33;86.60
74329;BME280;62749;51.982;5.916;2023-02-02T13:07:19;102159.31;;;8.23;87.56
74329;BME280;62749;51.982;5.916;2023-02-02T13:12:51;102168.22;;;8.12;89.44
74329;BME280;62749;51.982;5.916;2023-02-02T13:15:27;102172.75;;;7.95;90.35
74329;BME280;62749;51.982;5.916;2023-02-02T13:18:00;102171.06;;;7.86;90.90
74329;BME280;62749;51.982;5.916;2023-02-02T13:20:37;102171.97;;;7.82;91.79
74329;BME280;62749;51.982;5.916;2023-02-02T13:23:16;102168.50;;;7.78;92.18
74329;BME280;62749;51.982;5.916;2023-02-02T13:25:51;102161.50;;;7.79;92.39
74329;BME280;62749;51.982;5.916;2023-02-02T13:28:32;102165.88;;;7.77;92.94
74329;BME280;62749;51.982;5.916;2023-02-02T13:31:13;102170.25;;;7.78;93.15
74329;BME280;62749;51.982;5.916;2023-02-02T13:33:48;102173.75;;;7.78;93.38
74329;BME280;62749;51.982;5.916;2023-02-02T13:36:25;102163.19;;;7.83;93.58
74329;BME280;62749;51.982;5.916;2023-02-02T13:39:14;102172.84;;;7.82;93.77
74329;BME280;62749;51.982;5.916;2023-02-02T13:41:47;102166.72;;;7.83;93.99
74329;BME280;62749;51.982;5.916;2023-02-02T13:44:24;102176.44;;;7.71;93.86
74329;BME280;62749;51.982;5.916;2023-02-02T13:47:06;102162.47;;;7.65;94.44
74329;BME280;62749;51.982;5.916;2023-02-02T13:49:43;102174.69;;;7.73;94.58
74329;BME280;62749;51.982;5.916;2023-02-02T13:52:28;102171.19;;;7.71;94.62
74329;BME280;62749;51.982;5.916;2023-02-02T13:55:29;102170.31;;;7.68;94.87